Time;durP1;ratioP1;P1;durP2;ratioP2;P2;SDS_P1;SDS_P2;PMS_P1;PMS_P2;Temp;Humidity;BMP_temperature;BMP_pressure;BME280_temperature;BME280_humidity;BME280_pressure;Samples;Min_cycle;Max_cycle;Signal;HPM_P1;HPM_P2
2022/04/14 00:01:43;;;;;;;2.13;1.45;;;19.50;47.00;;;;;;6169335;28;20332;-66
2022/04/14 00:04:43;;;;;;;3.15;1.88;;;19.50;47.00;;;;;;6169344;28;20054;-68
2022/04/14 00:07:44;;;;;;;2.10;1.63;;;19.50;47.00;;;;;;6169843;28;20023;-67
2022/04/14 00:10:45;;;;;;;2.85;1.50;;;19.50;47.00;;;;;;6169247;28;20023;-67
2022/04/14 00:13:46;;;;;;;2.42;1.60;;;19.50;47.00;;;;;;6168829;28;20035;-67
2022/04/14 00:16:47;;;;;;;2.45;1.50;;;19.50;47.00;;;;;;6173960;28;20031;-68
2022/04/14 00:19:47;;;;;;;3.20;1.80;;;19.50;47.00;;;;;;6173312;28;20031;-66
2022/04/14 00:22:48;;;;;;;2.22;1.58;;;19.50;47.70;;;;;;6173501;28;20543;-68
2022/04/14 00:25:48;;;;;;;2.17;1.50;;;19.50;47.00;;;;;;6172587;28;20041;-67
2022/04/14 00:28:49;;;;;;;2.60;1.70;;;19.50;47.00;;;;;;6172315;28;20473;-66
2022/04/14 00:31:49;;;;;;;2.17;1.70;;;19.50;47.00;;;;;;6152029;28;20035;-67
2022/04/14 00:34:50;;;;;;;2.15;1.67;;;19.50;47.00;;;;;;6173098;28;20555;-68
2022/04/14 00:37:51;;;;;;;2.25;1.65;;;19.50;47.00;;;;;;6173513;28;20186;-67
2022/04/14 00:40:52;;;;;;;3.47;1.92;;;19.50;47.00;;;;;;6171773;28;20039;-67
2022/04/14 00:43:54;;;;;;;2.65;1.77;;;19.50;47.10;;;;;;6163440;28;20114;-69
2022/04/14 00:46:54;;;;;;;2.15;1.70;;;19.50;47.00;;;;;;6148983;28;20037;-68
2022/04/14 00:49:56;;;;;;;1.92;1.60;;;19.50;47.00;;;;;;6148923;28;20032;-68
2022/04/14 00:52:57;;;;;;;2.38;1.73;;;19.50;47.10;;;;;;6152450;28;20023;-67
2022/04/14 00:55:58;;;;;;;2.50;1.83;;;19.50;47.00;;;;;;6172169;28;20039;-67
2022/04/14 00:58:58;;;;;;;2.33;1.60;;;19.50;47.00;;;;;;6172829;28;20080;-67
2022/04/14 01:01:59;;;;;;;2.03;1.70;;;19.50;47.00;;;;;;6171591;28;20613;-66
2022/04/14 01:05:00;;;;;;;2.33;1.85;;;19.50;47.00;;;;;;6172732;28;20118;-67
2022/04/14 01:08:02;;;;;;;1.63;1.20;;;19.50;47.10;;;;;;6172547;28;20353;-68
2022/04/14 01:11:02;;;;;;;2.42;1.70;;;19.50;47.00;;;;;;6172671;28;20046;-68
2022/04/14 01:14:03;;;;;;;2.45;1.77;;;19.50;47.10;;;;;;6170620;28;20035;-69
2022/04/14 01:17:07;;;;;;;2.83;1.58;;;19.50;47.10;;;;;;6172293;28;20050;-68
2022/04/14 01:20:11;;;;;;;3.05;1.70;;;19.50;47.10;;;;;;6172326;28;20027;-68
2022/04/14 01:23:18;;;;;;;2.72;1.70;;;19.50;47.10;;;;;;6155222;28;20031;-68
2022/04/14 01:26:20;;;;;;;2.30;1.50;;;19.50;47.00;;;;;;6146541;28;20035;-67
2022/04/14 01:29:22;;;;;;;2.10;1.70;;;19.50;47.10;;;;;;6148132;28;20038;-68
2022/04/14 01:32:23;;;;;;;2.25;1.67;;;19.50;47.10;;;;;;6148260;29;20062;-67
2022/04/14 01:35:24;;;;;;;2.20;1.65;;;19.50;47.10;;;;;;6147366;29;20034;-67
2022/04/14 01:38:24;;;;;;;2.40;1.90;;;19.50;47.10;;;;;;6148076;28;20110;-67
2022/04/14 01:41:25;;;;;;;1.88;1.52;;;19.50;47.10;;;;;;6147712;29;20050;-68
2022/04/14 01:44:25;;;;;;;2.78;1.75;;;19.50;47.10;;;;;;6147748;28;20496;-66
2022/04/14 01:47:26;;;;;;;2.45;1.63;;;19.50;47.10;;;;;;6146980;28;20114;-68
2022/04/14 01:50:26;;;;;;;2.88;1.80;;;19.50;47.10;;;;;;6148042;28;20381;-67
2022/04/14 01:53:27;;;;;;;3.00;1.90;;;19.50;47.10;;;;;;6154493;28;20035;-68
2022/04/14 01:56:27;;;;;;;3.10;1.95;;;19.50;47.20;;;;;;6171060;28;20037;-68
2022/04/14 01:59:28;;;;;;;2.83;1.75;;;19.50;47.20;;;;;;6171289;28;20062;-66
2022/04/14 02:02:28;;;;;;;2.83;1.70;;;19.50;47.10;;;;;;6171114;28;20085;-66
2022/04/14 02:05:29;;;;;;;2.20;1.63;;;19.50;47.10;;;;;;6170409;28;20114;-68
2022/04/14 02:08:29;;;;;;;3.22;2.10;;;19.50;47.20;;;;;;6171066;28;20034;-68
2022/04/14 02:11:30;;;;;;;2.38;1.73;;;19.50;47.20;;;;;;6171192;28;20042;-68
2022/04/14 02:14:30;;;;;;;2.50;1.95;;;19.50;47.20;;;;;;6168932;28;20039;-69
2022/04/14 02:17:31;;;;;;;2.80;1.60;;;19.50;47.20;;;;;;6170325;28;20039;-68
2022/04/14 02:20:32;;;;;;;3.03;1.90;;;19.50;47.20;;;;;;6170885;28;20433;-68
2022/04/14 02:23:32;;;;;;;2.50;1.73;;;19.50;47.20;;;;;;6170437;28;20521;-68
2022/04/14 02:26:33;;;;;;;2.30;1.80;;;19.50;47.20;;;;;;6170262;28;20046;-66
2022/04/14 02:29:33;;;;;;;2.75;2.03;;;19.50;47.20;;;;;;6165579;28;20069;-66
2022/04/14 02:32:34;;;;;;;2.40;1.67;;;19.50;47.20;;;;;;6165454;28;20371;-68
2022/04/14 02:35:34;;;;;;;2.80;1.50;;;19.50;47.20;;;;;;6169936;28;20481;-67
2022/04/14 02:38:35;;;;;;;2.55;1.80;;;19.50;47.20;;;;;;6170526;28;20036;-67
2022/04/14 02:41:35;;;;;;;2.45;1.63;;;19.50;47.20;;;;;;6170013;28;20106;-68
2022/04/14 02:44:36;;;;;;;2.13;1.60;;;19.50;47.20;;;;;;6155346;28;20054;-68
2022/04/14 02:47:36;;;;;;;2.97;1.98;;;19.50;47.20;;;;;;6146008;29;20054;-69
2022/04/14 02:50:38;;;;;;;3.20;2.00;;;19.50;47.20;;;;;;6146426;28;20015;-67
2022/04/14 02:53:39;;;;;;;1.80;1.60;;;19.50;47.20;;;;;;6154700;28;20042;-68
2022/04/14 02:56:39;;;;;;;2.92;2.03;;;19.50;47.20;;;;;;6169971;28;20030;-68
2022/04/14 02:59:39;;;;;;;2.35;1.65;;;19.50;47.20;;;;;;6170121;28;20564;-67
2022/04/14 03:02:41;;;;;;;2.55;1.83;;;19.50;47.20;;;;;;6170097;28;20082;-66
2022/04/14 03:05:41;;;;;;;2.55;1.75;;;19.50;47.30;;;;;;6169777;28;20030;-68
2022/04/14 03:08:42;;;;;;;3.05;1.70;;;19.50;47.20;;;;;;6170338;28;20054;-67
2022/04/14 03:11:42;;;;;;;2.60;2.00;;;19.50;47.30;;;;;;6169965;28;20516;-67
2022/04/14 03:14:43;;;;;;;2.88;1.80;;;19.50;47.30;;;;;;6184594;28;20121;-68
2022/04/14 03:17:44;;;;;;;2.72;1.85;;;19.50;47.30;;;;;;6170099;28;20030;-67
2022/04/14 03:20:45;;;;;;;3.17;1.80;;;19.50;47.30;;;;;;6169869;28;20043;-67
2022/04/14 03:23:46;;;;;;;2.20;1.65;;;19.50;47.20;;;;;;6167857;28;20053;-67
2022/04/14 03:26:46;;;;;;;2.15;1.65;;;19.50;47.20;;;;;;6169505;28;20131;-67
2022/04/14 03:29:47;;;;;;;2.58;1.52;;;19.50;47.30;;;;;;6162933;28;20035;-68
2022/04/14 03:32:48;;;;;;;2.65;1.80;;;19.50;47.20;;;;;;6146054;29;20039;-67
2022/04/14 03:35:48;;;;;;;2.60;1.90;;;19.50;47.20;;;;;;6145405;28;20073;-69
2022/04/14 03:38:49;;;;;;;2.45;1.98;;;19.50;47.30;;;;;;6154110;28;20452;-68
2022/04/14 03:41:49;;;;;;;2.63;2.10;;;19.50;47.30;;;;;;6169584;28;20039;-67
2022/04/14 03:44:50;;;;;;;2.40;1.83;;;19.50;47.30;;;;;;6152575;28;20028;-67
2022/04/14 03:47:51;;;;;;;2.92;1.90;;;19.50;47.30;;;;;;6145432;28;20110;-67
2022/04/14 03:50:51;;;;;;;2.20;1.58;;;19.50;47.30;;;;;;6148602;28;20028;-67
2022/04/14 03:53:52;;;;;;;3.08;1.80;;;19.50;47.20;;;;;;6161141;28;20042;-67
2022/04/14 03:56:53;;;;;;;2.40;1.65;;;19.50;47.20;;;;;;6173764;28;20027;-67
2022/04/14 03:59:53;;;;;;;2.05;1.60;;;19.50;47.30;;;;;;6173772;28;20113;-67
2022/04/14 04:02:54;;;;;;;2.40;1.65;;;19.50;47.20;;;;;;6173589;28;20039;-67
2022/04/14 04:05:55;;;;;;;3.10;1.80;;;19.50;47.30;;;;;;6173791;28;20034;-67
2022/04/14 04:08:55;;;;;;;4.00;2.13;;;19.50;47.30;;;;;;6173192;28;20497;-68
2022/04/14 04:11:58;;;;;;;1.67;1.40;;;19.50;47.20;;;;;;6173858;28;20524;-67
2022/04/14 04:14:58;;;;;;;1.88;1.48;;;19.50;47.30;;;;;;6173338;28;20049;-67
2022/04/14 04:17:59;;;;;;;2.50;1.90;;;19.50;47.30;;;;;;6173340;28;20110;-68
2022/04/14 04:20:59;;;;;;;2.15;1.80;;;19.50;47.30;;;;;;6173420;28;20045;-67
2022/04/14 04:24:00;;;;;;;2.28;1.60;;;19.50;47.30;;;;;;6149262;28;20398;-67
2022/04/14 04:27:00;;;;;;;3.22;2.05;;;19.50;47.30;;;;;;6148912;29;20035;-68
2022/04/14 04:30:01;;;;;;;2.75;1.60;;;19.50;47.20;;;;;;6148062;28;20072;-68
2022/04/14 04:33:04;;;;;;;2.55;1.67;;;19.50;47.30;;;;;;6149015;28;20039;-68
2022/04/14 04:36:04;;;;;;;2.13;1.63;;;19.50;47.30;;;;;;6148683;28;20047;-66
2022/04/14 04:39:05;;;;;;;2.15;1.73;;;19.50;47.30;;;;;;6149091;28;20071;-68
2022/04/14 04:42:06;;;;;;;2.65;1.70;;;19.50;47.20;;;;;;6148963;28;20046;-68
2022/04/14 04:45:07;;;;;;;2.47;1.90;;;19.50;47.30;;;;;;6148956;28;20122;-66
2022/04/14 04:48:07;;;;;;;1.90;1.50;;;19.50;47.30;;;;;;6149091;29;20034;-68
2022/04/14 04:51:08;;;;;;;2.38;1.70;;;19.50;47.30;;;;;;6148808;28;20039;-68
2022/04/14 04:54:08;;;;;;;2.42;1.60;;;19.50;47.30;;;;;;6161658;28;20034;-67
2022/04/14 04:57:09;;;;;;;2.75;1.70;;;19.50;47.20;;;;;;6172217;28;20030;-68
2022/04/14 05:00:35;;;;;;;2.45;1.77;;;19.50;47.20;;;;;;6172542;28;20461;-67
2022/04/14 05:03:35;;;;;;;2.10;1.60;;;19.50;47.20;;;;;;6139740;28;20024;-68
2022/04/14 05:06:36;;;;;;;2.03;1.70;;;19.50;47.30;;;;;;6136918;28;20055;-67
2022/04/14 05:09:36;;;;;;;2.03;1.60;;;19.50;48.00;;;;;;6148492;29;20027;-68
2022/04/14 05:12:37;;;;;;;2.20;1.60;;;19.50;47.30;;;;;;6148109;28;20031;-66
2022/04/14 05:15:38;;;;;;;2.53;1.60;;;19.50;47.20;;;;;;6148159;28;20502;-67
2022/04/14 05:18:39;;;;;;;2.33;1.63;;;19.50;47.30;;;;;;6148163;28;20046;-67
2022/04/14 05:21:39;;;;;;;2.35;1.52;;;19.50;47.30;;;;;;6148320;28;20039;-68
2022/04/14 05:24:40;;;;;;;1.90;1.50;;;19.50;47.30;;;;;;6147750;28;20023;-68
2022/04/14 05:27:42;;;;;;;1.80;1.40;;;19.50;47.20;;;;;;6147927;28;20031;-68
2022/04/14 05:30:42;;;;;;;1.27;1.17;;;19.50;47.20;;;;;;6147022;28;20103;-67
2022/04/14 05:33:43;;;;;;;2.45;1.65;;;19.50;47.90;;;;;;6147198;29;20027;-67
2022/04/14 05:36:43;;;;;;;1.98;1.35;;;19.50;47.20;;;;;;6147537;29;20024;-66
2022/04/14 05:39:44;;;;;;;1.67;1.33;;;19.50;47.20;;;;;;6146503;29;20070;-67
2022/04/14 05:42:48;;;;;;;2.20;1.60;;;19.50;47.20;;;;;;6147301;28;20035;-67
2022/04/14 05:45:48;;;;;;;2.65;1.70;;;19.50;47.20;;;;;;6147135;28;20443;-67
2022/04/14 05:48:49;;;;;;;1.63;1.30;;;19.50;47.20;;;;;;6147570;29;20114;-68
2022/04/14 05:51:50;;;;;;;3.95;1.70;;;19.50;47.40;;;;;;6147651;28;20039;-66
2022/04/14 05:54:50;;;;;;;2.00;1.50;;;19.50;47.00;;;;;;6165534;28;20125;-68
2022/04/14 05:57:51;;;;;;;2.20;1.67;;;19.50;47.00;;;;;;6171289;28;20396;-66
2022/04/14 06:00:52;;;;;;;2.60;1.60;;;19.60;47.10;;;;;;6149665;28;20074;-67
2022/04/14 06:03:52;;;;;;;3.03;1.70;;;19.50;47.10;;;;;;6149045;28;20118;-67
2022/04/14 06:06:53;;;;;;;2.42;1.60;;;19.50;47.00;;;;;;6148741;28;20402;-67
2022/04/14 06:09:53;;;;;;;1.77;1.60;;;19.60;47.20;;;;;;6148969;28;20123;-68
2022/04/14 06:12:57;;;;;;;1.63;1.45;;;19.60;47.10;;;;;;6147088;28;20094;-67
2022/04/14 06:15:57;;;;;;;3.00;1.80;;;19.60;47.10;;;;;;6148695;28;20102;-67
2022/04/14 06:18:58;;;;;;;2.40;1.77;;;19.60;47.10;;;;;;6148911;28;20055;-68
2022/04/14 06:21:58;;;;;;;2.53;1.40;;;19.50;47.00;;;;;;6148954;28;20126;-67
2022/04/14 06:24:59;;;;;;;3.47;1.83;;;19.50;47.10;;;;;;6148453;28;20405;-68
2022/04/14 06:28:00;;;;;;;1.85;1.50;;;19.50;47.10;;;;;;6148623;28;20027;-67
2022/04/14 06:31:01;;;;;;;2.20;1.60;;;19.60;47.20;;;;;;6148453;29;20437;-69
2022/04/14 06:34:03;;;;;;;2.13;1.60;;;19.50;47.10;;;;;;6148463;29;20035;-67
2022/04/14 06:37:04;;;;;;;2.20;1.63;;;19.50;47.10;;;;;;6148270;28;20031;-70
2022/04/14 06:40:05;;;;;;;2.08;1.58;;;19.60;47.20;;;;;;6148596;28;20031;-67
2022/04/14 06:43:06;;;;;;;2.65;1.60;;;19.50;47.10;;;;;;6148063;29;20038;-67
2022/04/14 06:46:06;;;;;;;2.13;1.33;;;19.50;47.10;;;;;;6148862;28;20031;-67
2022/04/14 06:49:07;;;;;;;2.22;1.80;;;19.60;47.20;;;;;;6148151;29;20428;-69
2022/04/14 06:52:07;;;;;;;1.73;1.33;;;19.50;47.10;;;;;;6148346;29;20016;-68
2022/04/14 06:55:09;;;;;;;2.45;1.60;;;19.50;47.10;;;;;;6168627;28;20030;-67
2022/04/14 06:58:10;;;;;;;2.35;1.70;;;19.50;47.20;;;;;;6171808;28;20014;-67
2022/04/14 07:01:11;;;;;;;2.00;1.58;;;19.50;47.10;;;;;;6172203;28;20037;-67
2022/04/14 07:04:11;;;;;;;2.67;1.75;;;19.50;47.20;;;;;;6171949;28;20344;-67
2022/04/14 07:07:12;;;;;;;2.08;1.63;;;19.60;47.30;;;;;;6172014;28;20039;-69
2022/04/14 07:10:13;;;;;;;2.10;1.60;;;19.50;47.20;;;;;;6171750;28;20668;-67
2022/04/14 07:13:13;;;;;;;2.70;1.73;;;19.60;47.30;;;;;;6172233;28;20097;-68
2022/04/14 07:16:14;;;;;;;2.28;1.70;;;19.50;47.20;;;;;;6171368;28;20031;-67
2022/04/14 07:19:14;;;;;;;2.35;1.75;;;19.60;47.30;;;;;;6172049;28;20026;-68
2022/04/14 07:22:19;;;;;;;1.88;1.52;;;19.50;47.20;;;;;;6161833;28;20042;-68
2022/04/14 07:25:21;;;;;;;2.10;1.38;;;19.50;47.20;;;;;;6149712;28;20409;-67
2022/04/14 07:28:21;;;;;;;2.58;1.83;;;19.50;47.20;;;;;;6152429;29;20115;-66
2022/04/14 07:31:22;;;;;;;2.03;1.50;;;19.50;47.20;;;;;;6152304;28;20027;-66
2022/04/14 07:34:22;;;;;;;1.95;1.35;;;19.60;47.30;;;;;;6152375;29;20482;-68
2022/04/14 07:37:23;;;;;;;1.60;1.27;;;19.50;47.20;;;;;;6152400;29;20056;-67
2022/04/14 07:40:24;;;;;;;1.58;1.30;;;19.60;47.30;;;;;;6169328;28;20034;-67
2022/04/14 07:43:25;;;;;;;2.08;1.45;;;19.60;47.30;;;;;;6171015;28;20072;-66
2022/04/14 07:46:25;;;;;;;2.50;1.55;;;19.50;47.20;;;;;;6152228;28;20467;-67
2022/04/14 07:49:27;;;;;;;1.30;1.08;;;19.50;47.20;;;;;;6152312;28;20469;-67
2022/04/14 07:52:28;;;;;;;1.67;1.38;;;19.60;47.30;;;;;;6152149;28;20035;-68
2022/04/14 07:55:33;;;;;;;1.50;1.30;;;19.50;47.20;;;;;;6175135;28;20069;-67
2022/04/14 07:58:34;;;;;;;1.52;1.20;;;19.50;47.20;;;;;;6176195;28;20051;-67
2022/04/14 08:01:34;;;;;;;2.22;1.35;;;19.50;47.20;;;;;;6176178;28;20494;-68
2022/04/14 08:04:35;;;;;;;1.88;1.30;;;19.50;47.20;;;;;;6174898;28;20031;-67
2022/04/14 08:07:35;;;;;;;1.83;1.35;;;19.50;47.20;;;;;;6176029;28;20149;-68
2022/04/14 08:10:36;;;;;;;1.38;1.13;;;19.50;47.20;;;;;;6175521;28;20066;-67
2022/04/14 08:13:38;;;;;;;1.92;1.27;;;19.60;47.30;;;;;;6175602;28;20122;-67
2022/04/14 08:16:39;;;;;;;1.45;1.10;;;19.60;47.30;;;;;;6175011;28;20035;-67
2022/04/14 08:19:40;;;;;;;1.80;1.42;;;19.50;47.20;;;;;;6175337;28;20385;-68
2022/04/14 08:22:44;;;;;;;1.45;1.20;;;19.50;47.20;;;;;;6175835;28;20034;-68
2022/04/14 08:25:45;;;;;;;2.70;1.42;;;19.60;47.30;;;;;;6175056;28;20027;-68
2022/04/14 08:28:46;;;;;;;2.00;1.35;;;19.60;47.30;;;;;;6175860;28;20441;-68
2022/04/14 08:31:47;;;;;;;1.23;1.00;;;19.60;47.30;;;;;;6173938;28;20031;-67
2022/04/14 08:34:48;;;;;;;1.65;1.35;;;19.60;47.30;;;;;;6175100;28;20362;-68
2022/04/14 08:37:49;;;;;;;1.70;1.00;;;19.60;47.30;;;;;;6174640;28;20509;-68
2022/04/14 08:40:57;;;;;;;1.35;1.10;;;19.60;47.30;;;;;;6175104;28;20035;-68
2022/04/14 08:44:05;;;;;;;1.70;1.30;;;19.60;47.30;;;;;;6164853;28;20482;-67
2022/04/14 08:47:08;;;;;;;1.65;1.30;;;19.60;47.30;;;;;;6151114;28;20043;-67
2022/04/14 08:50:10;;;;;;;2.22;1.40;;;19.60;47.30;;;;;;6150701;28;20035;-67
2022/04/14 08:53:11;;;;;;;1.52;1.23;;;19.60;47.30;;;;;;6156623;28;20424;-69
2022/04/14 08:56:13;;;;;;;1.90;1.10;;;19.60;47.30;;;;;;6174119;28;20023;-68
2022/04/14 08:59:17;;;;;;;1.83;1.20;;;19.60;47.30;;;;;;6174869;28;20124;-67
2022/04/14 09:02:19;;;;;;;1.60;1.30;;;19.60;47.40;;;;;;6174971;28;20037;-68
2022/04/14 09:05:20;;;;;;;1.30;1.10;;;19.60;47.30;;;;;;6174087;28;20389;-68
2022/04/14 09:08:21;;;;;;;1.65;1.20;;;19.60;47.30;;;;;;6174719;28;20034;-68
2022/04/14 09:11:22;;;;;;;1.30;1.20;;;19.60;47.30;;;;;;6174863;28;20054;-67
2022/04/14 09:14:23;;;;;;;1.35;1.05;;;19.60;47.40;;;;;;6174422;28;20030;-67
2022/04/14 09:17:23;;;;;;;1.02;0.93;;;19.60;47.30;;;;;;6174121;28;20031;-67
2022/04/14 09:20:34;;;;;;;1.20;1.00;;;19.60;47.40;;;;;;6174752;28;20385;-68
2022/04/14 09:23:36;;;;;;;1.48;1.00;;;19.50;47.20;;;;;;6173790;28;20513;-66
2022/04/14 09:26:39;;;;;;;1.10;1.00;;;19.60;47.30;;;;;;6174054;28;20055;-67
2022/04/14 09:29:47;;;;;;;2.28;1.40;;;19.60;47.30;;;;;;6168012;28;20028;-68
2022/04/14 09:32:48;;;;;;;1.70;1.13;;;19.60;47.40;;;;;;6150420;29;20023;-68
2022/04/14 09:36:08;;;;;;;1.58;1.20;;;19.60;47.40;;;;;;6149293;29;20055;-67
2022/04/14 09:39:09;;;;;;;1.83;1.30;;;19.60;47.30;;;;;;6149863;28;20118;-67
2022/04/14 09:42:13;;;;;;;2.15;1.20;;;19.60;47.40;;;;;;6156956;28;20046;-67
2022/04/14 09:45:20;;;;;;;1.98;1.00;;;19.60;47.40;;;;;;6153808;28;20026;-67
2022/04/14 09:48:22;;;;;;;1.50;1.10;;;19.60;47.30;;;;;;6147444;28;20520;-68
2022/04/14 09:51:26;;;;;;;1.65;1.25;;;19.60;47.40;;;;;;6149649;28;20027;-68
2022/04/14 09:54:29;;;;;;;1.42;1.02;;;19.60;47.40;;;;;;6164895;28;20023;-68
2022/04/14 09:57:30;;;;;;;1.50;1.02;;;19.60;47.40;;;;;;6172807;28;20018;-67
2022/04/14 10:00:41;;;;;;;1.20;0.80;;;19.60;47.40;;;;;;6173039;28;20133;-67
2022/04/14 10:03:41;;;;;;;1.00;0.90;;;19.60;47.40;;;;;;6173624;28;20078;-69
2022/04/14 10:07:11;;;;;;;1.48;1.10;;;19.60;47.40;;;;;;6171451;28;20486;-67
2022/04/14 10:10:22;;;;;;;1.33;1.00;;;19.60;47.40;;;;;;6172985;28;20050;-67
2022/04/14 10:13:23;;;;;;;1.35;1.17;;;19.60;47.40;;;;;;6172880;28;20033;-67
2022/04/14 10:16:25;;;;;;;1.35;1.02;;;19.60;47.40;;;;;;6172395;28;20023;-67
2022/04/14 10:19:28;;;;;;;1.80;1.08;;;19.60;47.40;;;;;;6173102;28;20031;-68
2022/04/14 10:22:29;;;;;;;1.50;1.00;;;19.60;47.40;;;;;;6172743;28;20047;-66
2022/04/14 10:25:32;;;;;;;1.20;1.00;;;19.60;47.40;;;;;;6172581;28;20090;-68
2022/04/14 10:28:35;;;;;;;1.83;1.10;;;19.60;47.40;;;;;;6172496;28;20033;-66
2022/04/14 10:31:36;;;;;;;1.25;1.00;;;19.60;47.40;;;;;;6151606;28;20038;-68
2022/04/14 10:34:37;;;;;;;1.38;1.17;;;19.60;47.40;;;;;;6148520;29;20321;-69
2022/04/14 10:37:50;;;;;;;1.23;1.00;;;19.60;47.40;;;;;;6148408;28;20030;-68
2022/04/14 10:41:17;;;;;;;1.33;1.10;;;19.60;47.40;;;;;;6148382;28;20122;-68
2022/04/14 10:44:22;;;;;;;2.08;0.95;;;19.60;47.40;;;;;;6148136;28;20115;-68
2022/04/14 10:47:42;;;;;;;1.00;0.90;;;19.60;47.40;;;;;;6145511;28;20050;-68
2022/04/14 10:50:42;;;;;;;1.25;0.98;;;19.60;47.40;;;;;;6148341;28;20497;-67
2022/04/14 10:53:51;;;;;;;0.80;0.70;;;19.60;47.40;;;;;;6157315;28;20070;-66
2022/04/14 10:56:52;;;;;;;0.90;0.80;;;19.60;47.40;;;;;;6172113;28;20057;-67
2022/04/14 10:59:54;;;;;;;1.52;1.00;;;19.60;47.40;;;;;;6171519;28;20046;-68
2022/04/14 11:03:02;;;;;;;0.88;0.70;;;19.60;47.40;;;;;;6171912;28;20441;-68
2022/04/14 11:06:02;;;;;;;0.95;0.80;;;19.60;47.40;;;;;;6171639;28;20397;-67
2022/04/14 11:09:03;;;;;;;1.05;0.82;;;19.60;47.40;;;;;;6171875;28;20037;-67
2022/04/14 11:12:04;;;;;;;1.13;0.73;;;19.60;47.50;;;;;;6171836;28;20035;-68
2022/04/14 11:15:07;;;;;;;1.48;0.90;;;19.60;47.40;;;;;;6171759;28;20405;-66
2022/04/14 11:18:07;;;;;;;1.42;0.90;;;19.60;47.50;;;;;;6171427;28;20027;-66
2022/04/14 11:21:08;;;;;;;1.17;0.82;;;19.60;47.50;;;;;;6171889;28;20496;-68
2022/04/14 11:24:14;;;;;;;1.10;0.63;;;19.60;47.50;;;;;;6171766;28;20030;-67
2022/04/14 11:27:27;;;;;;;0.70;0.70;;;19.60;47.50;;;;;;6170961;28;20109;-67
2022/04/14 11:30:40;;;;;;;1.95;0.80;;;19.60;47.50;;;;;;6159294;28;20045;-67
2022/04/14 11:33:48;;;;;;;1.75;1.00;;;19.60;47.50;;;;;;6147316;29;20385;-67
2022/04/14 11:36:50;;;;;;;1.25;1.00;;;19.60;47.50;;;;;;6146745;29;20070;-67
2022/04/14 11:40:10;;;;;;;1.58;0.80;;;19.60;47.50;;;;;;6152601;28;20034;-68
2022/04/14 11:43:11;;;;;;;0.82;0.70;;;19.60;47.50;;;;;;6163824;28;20082;-67
2022/04/14 11:46:12;;;;;;;1.00;0.80;;;19.60;47.50;;;;;;6123779;29;20032;-68
2022/04/14 11:49:18;;;;;;;0.98;0.80;;;19.60;47.50;;;;;;6123666;29;20032;-68
2022/04/14 11:52:21;;;;;;;0.98;0.80;;;19.60;47.50;;;;;;6123586;29;20537;-67
2022/04/14 11:55:42;;;;;;;1.30;1.00;;;19.60;47.50;;;;;;6168540;28;20022;-68
2022/04/14 11:58:43;;;;;;;1.02;0.88;;;19.60;47.50;;;;;;6170848;28;20141;-66
2022/04/14 12:01:49;;;;;;;1.58;1.00;;;19.60;47.50;;;;;;6170800;28;20420;-68
2022/04/14 12:04:52;;;;;;;1.17;0.90;;;19.60;47.50;;;;;;6171058;28;20077;-67
2022/04/14 12:08:05;;;;;;;0.60;0.60;;;19.60;47.50;;;;;;6170663;28;20762;-68
2022/04/14 12:11:14;;;;;;;1.00;0.90;;;19.60;47.50;;;;;;6173318;28;20129;-68
2022/04/14 12:14:16;;;;;;;1.40;0.80;;;19.60;47.50;;;;;;6175201;28;20051;-67
2022/04/14 12:17:22;;;;;;;1.15;0.80;;;19.60;47.50;;;;;;6175698;28;20042;-67
2022/04/14 12:20:23;;;;;;;1.50;1.00;;;19.60;47.50;;;;;;6175383;28;20522;-69
2022/04/14 12:23:24;;;;;;;0.93;0.70;;;19.60;47.50;;;;;;6175507;28;20490;-68
2022/04/14 12:26:30;;;;;;;0.95;0.80;;;19.60;47.50;;;;;;6175183;28;20023;-67
2022/04/14 12:29:30;;;;;;;1.10;0.85;;;19.60;47.50;;;;;;6171429;28;20023;-68
2022/04/14 12:32:31;;;;;;;0.93;0.77;;;19.60;47.50;;;;;;6175152;28;20398;-67
2022/04/14 12:35:36;;;;;;;1.85;0.80;;;19.60;47.50;;;;;;6174832;28;20362;-67
2022/04/14 12:38:44;;;;;;;0.85;0.70;;;19.60;47.50;;;;;;6175394;28;20031;-67
2022/04/14 12:41:45;;;;;;;1.48;0.90;;;19.60;47.50;;;;;;6175128;28;20485;-66
2022/04/14 12:44:45;;;;;;;0.70;0.70;;;19.60;47.50;;;;;;6143179;28;20023;-67
2022/04/14 12:47:47;;;;;;;0.65;0.60;;;19.60;47.50;;;;;;6126508;29;20043;-68
2022/04/14 12:50:57;;;;;;;0.60;0.50;;;19.60;47.50;;;;;;6127409;29;20479;-68
2022/04/14 12:53:59;;;;;;;1.33;0.80;;;19.60;47.50;;;;;;6149510;28;20038;-69
2022/04/14 12:57:07;;;;;;;0.70;0.70;;;19.60;47.50;;;;;;6174818;28;20109;-68
2022/04/14 13:00:13;;;;;;;0.77;0.70;;;19.60;47.50;;;;;;6174589;28;20401;-68
2022/04/14 13:03:14;;;;;;;1.00;0.70;;;19.60;47.50;;;;;;6174380;28;20065;-68
2022/04/14 13:06:19;;;;;;;0.70;0.70;;;19.60;47.50;;;;;;6174442;28;20035;-68
2022/04/14 13:09:19;;;;;;;0.70;0.50;;;19.60;47.50;;;;;;6175092;28;20035;-68
2022/04/14 13:12:44;;;;;;;0.80;0.73;;;19.60;47.50;;;;;;6174541;28;20035;-66
2022/04/14 13:15:45;;;;;;;1.33;1.00;;;19.60;47.50;;;;;;6174268;28;20027;-68
2022/04/14 13:18:46;;;;;;;0.70;0.70;;;19.60;47.50;;;;;;6174290;28;20097;-66
2022/04/14 13:21:47;;;;;;;0.60;0.60;;;19.60;47.60;;;;;;6168354;28;20375;-68
2022/04/14 13:24:47;;;;;;;0.93;0.85;;;19.60;47.60;;;;;;6150179;29;20039;-69
2022/04/14 13:27:48;;;;;;;0.70;0.70;;;19.60;47.60;;;;;;6150222;29;20068;-66
2022/04/14 13:30:49;;;;;;;0.80;0.60;;;19.60;47.50;;;;;;6149799;29;20031;-68
2022/04/14 13:33:49;;;;;;;1.05;0.65;;;19.60;47.60;;;;;;6154126;28;20038;-68
2022/04/14 13:36:54;;;;;;;0.63;0.60;;;19.60;47.60;;;;;;6173737;28;20031;-68
2022/04/14 13:39:55;;;;;;;1.30;0.88;;;19.60;47.60;;;;;;6173743;28;20030;-67
2022/04/14 13:42:56;;;;;;;0.70;0.70;;;19.60;47.60;;;;;;6170814;28;20050;-66
2022/04/14 13:45:56;;;;;;;1.08;0.77;;;19.60;47.60;;;;;;6138335;28;20030;-67
2022/04/14 13:48:57;;;;;;;0.85;0.77;;;19.60;47.60;;;;;;6149346;29;20039;-68
2022/04/14 13:51:59;;;;;;;0.65;0.60;;;19.60;47.60;;;;;;6149747;28;20039;-68
2022/04/14 13:55:00;;;;;;;0.60;0.60;;;19.60;47.60;;;;;;6169073;28;20039;-69
2022/04/14 13:58:01;;;;;;;1.00;0.80;;;19.60;47.60;;;;;;6172921;28;20037;-67
2022/04/14 14:01:04;;;;;;;0.70;0.68;;;19.60;47.60;;;;;;6173090;28;20050;-68
2022/04/14 14:04:05;;;;;;;0.65;0.60;;;19.60;47.60;;;;;;6172934;28;20031;-66
2022/04/14 14:07:05;;;;;;;0.88;0.70;;;19.60;47.60;;;;;;6172869;28;20050;-66
2022/04/14 14:10:06;;;;;;;0.70;0.63;;;19.60;47.70;;;;;;6173266;28;20166;-69
2022/04/14 14:13:07;;;;;;;0.60;0.50;;;19.60;47.60;;;;;;6172724;28;20023;-66
2022/04/14 14:16:08;;;;;;;0.70;0.52;;;19.60;47.60;;;;;;6172831;28;20027;-65
2022/04/14 14:19:09;;;;;;;1.00;0.80;;;19.60;47.60;;;;;;6172897;28;20033;-67
2022/04/14 14:22:09;;;;;;;0.90;0.70;;;19.60;47.70;;;;;;6173209;28;20031;-67
2022/04/14 14:25:10;;;;;;;1.00;0.73;;;19.60;47.60;;;;;;6172465;28;20494;-67
2022/04/14 14:28:10;;;;;;;0.65;0.63;;;19.60;47.60;;;;;;6172544;28;20023;-67
2022/04/14 14:31:11;;;;;;;0.65;0.60;;;19.60;47.70;;;;;;6170713;28;20058;-67
2022/04/14 14:34:13;;;;;;;0.93;0.77;;;19.60;47.60;;;;;;6172059;28;20031;-68
2022/04/14 14:37:13;;;;;;;0.85;0.73;;;19.60;47.60;;;;;;6172221;28;20023;-67
2022/04/14 14:40:15;;;;;;;1.08;0.70;;;19.60;47.70;;;;;;6171909;28;20520;-68
2022/04/14 14:43:16;;;;;;;1.00;0.70;;;19.60;47.60;;;;;;6163845;28;20114;-67
2022/04/14 14:46:21;;;;;;;0.80;0.60;;;19.60;47.60;;;;;;6124263;29;20383;-68
2022/04/14 14:49:22;;;;;;;0.75;0.70;;;19.60;47.60;;;;;;6124738;29;20028;-67
2022/04/14 14:52:23;;;;;;;0.80;0.80;;;19.60;47.60;;;;;;6124720;29;20525;-68
2022/04/14 14:55:23;;;;;;;0.70;0.70;;;19.60;47.60;;;;;;6169485;28;20102;-68
2022/04/14 15:01:48;;;;;;;0.60;0.55;;;19.60;47.60;;;;;;6172663;28;20035;-69
2022/04/14 15:04:50;;;;;;;0.80;0.65;;;19.60;47.60;;;;;;6171797;28;20519;-67
2022/04/14 15:07:54;;;;;;;0.60;0.60;;;19.60;47.60;;;;;;6172341;28;20035;-67
2022/04/14 15:10:54;;;;;;;0.68;0.50;;;19.60;47.70;;;;;;6171986;28;20054;-68
2022/04/14 15:13:55;;;;;;;0.70;0.60;;;19.60;47.60;;;;;;6171938;28;20026;-67
2022/04/14 15:16:55;;;;;;;0.80;0.63;;;19.60;47.70;;;;;;6171573;28;20118;-67
2022/04/14 15:19:56;;;;;;;0.73;0.60;;;19.60;47.70;;;;;;6171899;28;20027;-67
2022/04/14 15:22:58;;;;;;;1.08;0.70;;;19.60;47.60;;;;;;6172265;28;20034;-68
2022/04/14 15:25:58;;;;;;;0.52;0.52;;;19.60;47.70;;;;;;6170824;28;20054;-67
2022/04/14 15:28:59;;;;;;;0.70;0.57;;;19.60;47.70;;;;;;6171735;28;20381;-69
2022/04/14 15:31:59;;;;;;;0.73;0.73;;;19.60;47.70;;;;;;6148044;29;20031;-68
2022/04/14 15:35:00;;;;;;;1.02;0.90;;;19.60;47.70;;;;;;6147715;29;20027;-68
2022/04/14 15:38:01;;;;;;;0.57;0.45;;;19.60;47.70;;;;;;6147616;29;20106;-69
2022/04/14 15:41:02;;;;;;;0.70;0.65;;;19.60;47.70;;;;;;6147677;29;20027;-67
2022/04/14 15:44:03;;;;;;;0.93;0.70;;;19.60;47.70;;;;;;6136992;29;20024;-67
2022/04/14 15:47:04;;;;;;;1.02;0.63;;;19.60;47.70;;;;;;6127249;29;20114;-68
2022/04/14 15:50:06;;;;;;;0.60;0.50;;;19.60;47.70;;;;;;6128754;29;20107;-68
2022/04/14 15:53:06;;;;;;;0.60;0.40;;;19.60;47.70;;;;;;6137630;28;20524;-68